Terminal Aerodrome Forecast
Issued by NWS Spokane, WA

Home | Current Version | Previous Version | Text Only | Print | Product List | Glossary On
Versions: 1 2 3 4 5 6 7 8 9 10 11 12 13 14 15 16 17 18 19 20
000
FTUS46 KOTX 211730
TAFGEG
TAF
KGEG 211730Z 2118/2218 15010KT P6SM -RA SCT025 OVC040
     FM212000 14012KT 6SM -RA BR OVC025
     FM212300 15010KT 4SM -RA OVC015
     FM220300 19015KT P6SM -RA OVC012
     FM220800 21030G40KT P6SM -RA OVC040
     FM221500 23025G35KT P6SM -SHRA BKN040 OVC070=

USA.gov is the U.S. government's official web portal to all federal, state and local government web resources and services.